createdAt,value
2018-07-30T00:03:22.598Z,5.78
2018-07-30T00:08:17.048Z,6.07
2018-07-30T00:13:11.569Z,5.80
2018-07-30T00:18:06.389Z,5.57
2018-07-30T00:23:00.857Z,5.80
2018-07-30T00:27:55.357Z,5.90
2018-07-30T00:32:49.852Z,5.55
2018-07-30T00:37:44.325Z,5.80
2018-07-30T00:42:38.760Z,6.57
2018-07-30T00:47:33.205Z,5.90
2018-07-30T00:52:27.625Z,5.93
2018-07-30T00:57:22.065Z,6.27
2018-07-30T01:02:16.553Z,6.30
2018-07-30T01:07:11.058Z,6.05
2018-07-30T01:12:05.519Z,6.47
2018-07-30T01:17:00.010Z,5.83
2018-07-30T01:21:54.219Z,6.20
2018-07-30T01:26:48.673Z,5.90
2018-07-30T01:31:43.146Z,5.93
2018-07-30T01:36:37.608Z,6.33
2018-07-30T01:41:32.100Z,6.53
2018-07-30T01:46:26.583Z,6.30
2018-07-30T01:51:21.035Z,6.50
2018-07-30T01:56:15.449Z,6.43
2018-07-30T02:01:09.918Z,6.57
2018-07-30T02:06:04.408Z,6.60
2018-07-30T02:10:58.973Z,7.10
2018-07-30T02:15:53.440Z,6.60
2018-07-30T02:20:47.883Z,7.10
2018-07-30T02:25:42.368Z,6.40
2018-07-30T02:30:36.796Z,7.13
2018-07-30T02:35:31.262Z,6.47
2018-07-30T02:40:25.391Z,6.30
2018-07-30T02:45:19.864Z,6.40
2018-07-30T02:50:14.347Z,6.67
2018-07-30T02:55:08.810Z,6.63
2018-07-30T03:00:03.281Z,7.33
2018-07-30T03:04:57.730Z,6.43
2018-07-30T03:09:52.261Z,6.70
2018-07-30T03:14:46.720Z,6.77
2018-07-30T03:19:41.202Z,7.00
2018-07-30T03:24:35.679Z,6.93
2018-07-30T03:29:30.137Z,7.70
2018-07-30T03:34:24.602Z,7.00
2018-07-30T03:39:19.058Z,7.77
2018-07-30T03:44:13.586Z,7.23
2018-07-30T03:49:08.029Z,7.60
2018-07-30T03:54:02.482Z,7.43
2018-07-30T03:58:56.960Z,7.60
2018-07-30T04:03:51.501Z,7.80
2018-07-30T04:08:45.984Z,7.57
2018-07-30T04:13:40.435Z,7.93
2018-07-30T04:18:34.883Z,7.97
2018-07-30T04:23:29.353Z,7.93
2018-07-30T04:28:23.797Z,7.60
2018-07-30T04:33:18.245Z,7.67
2018-07-30T04:38:12.699Z,7.08
2018-07-30T04:43:07.126Z,7.87
2018-07-30T04:48:01.556Z,7.00
2018-07-30T04:52:56.170Z,7.62
2018-07-30T04:57:51.438Z,7.60
2018-07-30T05:02:45.897Z,7.92
2018-07-30T05:07:40.356Z,7.05
2018-07-30T05:12:34.817Z,6.92
2018-07-30T05:17:29.299Z,6.95
2018-07-30T05:22:23.833Z,7.53
2018-07-30T05:27:18.000Z,7.12
2018-07-30T05:32:12.565Z,7.58
2018-07-30T05:37:07.150Z,6.97
2018-07-30T05:42:01.663Z,7.72
2018-07-30T05:46:56.194Z,6.62
2018-07-30T05:51:50.876Z,6.67
2018-07-30T05:56:45.482Z,6.75
2018-07-30T06:01:40.093Z,6.78
2018-07-30T06:06:34.612Z,6.65
2018-07-30T06:11:29.229Z,7.25
2018-07-30T06:16:23.772Z,6.62
2018-07-30T06:21:18.401Z,4.80
2018-07-30T06:26:13.144Z,5.65
2018-07-30T06:31:19.258Z,6.60
2018-07-30T06:36:14.667Z,5.78
2018-07-30T06:41:08.894Z,6.00
2018-07-30T06:46:03.399Z,6.50
2018-07-30T06:50:58.005Z,6.30
2018-07-30T06:55:52.748Z,6.37
2018-07-30T07:00:47.516Z,6.90
2018-07-30T07:05:42.117Z,6.53
2018-07-30T07:10:36.697Z,6.58
2018-07-30T07:15:31.339Z,6.85
2018-07-30T07:20:25.908Z,6.72
2018-07-30T07:25:20.596Z,6.28
2018-07-30T07:30:15.746Z,6.25
2018-07-30T07:35:10.446Z,6.60
2018-07-30T07:45:09.276Z,5.87
2018-07-30T07:50:03.975Z,6.53
2018-07-30T07:55:00.183Z,6.10
2018-07-30T07:59:54.765Z,6.50
2018-07-30T08:04:49.223Z,8.15
2018-07-30T08:14:46.700Z,8.18
2018-07-30T08:19:40.216Z,7.30
2018-07-30T08:24:38.705Z,7.28
2018-07-30T08:29:32.377Z,6.72
2018-07-30T08:34:25.526Z,6.05
2018-07-30T08:39:18.706Z,6.85
2018-07-30T08:44:11.839Z,6.62
2018-07-30T08:49:05.536Z,6.62
2018-07-30T08:53:58.670Z,5.80
2018-07-30T08:58:56.056Z,6.97
2018-07-30T09:04:01.027Z,8.53
2018-07-30T09:08:54.948Z,6.90
2018-07-30T09:13:48.383Z,6.30
2018-07-30T09:18:41.967Z,6.47
2018-07-30T09:23:35.112Z,6.62
2018-07-30T09:28:28.220Z,6.70
2018-07-30T09:33:22.041Z,6.42
2018-07-30T09:38:19.307Z,7.12
2018-07-30T09:43:26.714Z,7.00
2018-07-30T09:48:19.950Z,7.00
2018-07-30T09:53:12.978Z,6.75
2018-07-30T09:58:05.981Z,7.12
2018-07-30T10:02:58.999Z,7.37
2018-07-30T10:07:52.248Z,7.95
2018-07-30T10:12:45.298Z,7.03
2018-07-30T10:17:38.550Z,6.83
2018-07-30T10:22:31.565Z,6.90
2018-07-30T10:27:24.698Z,6.95
2018-07-30T10:32:17.769Z,6.78
2018-07-30T10:37:10.928Z,6.62
2018-07-30T10:42:05.435Z,6.10
2018-07-30T10:46:58.558Z,5.80
2018-07-30T10:51:51.692Z,5.67
2018-07-30T10:56:44.706Z,5.47
2018-07-30T11:01:39.137Z,5.83
2018-07-30T11:06:32.260Z,4.92
2018-07-30T11:11:25.413Z,4.87
2018-07-30T11:16:18.792Z,4.60
2018-07-30T11:21:11.891Z,4.35
2018-07-30T11:26:05.095Z,4.67
2018-07-30T11:30:58.238Z,3.62
2018-07-30T11:35:51.337Z,4.22
2018-07-30T11:40:44.339Z,4.42
2018-07-30T11:45:37.630Z,4.97
2018-07-30T11:50:30.692Z,4.72
2018-07-30T11:55:23.874Z,4.60
2018-07-30T12:00:16.933Z,5.17
2018-07-30T12:05:10.486Z,5.72
2018-07-30T12:10:03.993Z,5.10
2018-07-30T12:14:57.563Z,4.75
2018-07-30T12:19:50.900Z,4.35
2018-07-30T12:24:44.070Z,4.55
2018-07-30T12:29:37.189Z,4.75
2018-07-30T12:34:32.090Z,5.05
2018-07-30T12:39:25.263Z,5.17
2018-07-30T12:44:18.484Z,4.85
2018-07-30T12:49:11.680Z,4.60
2018-07-30T12:54:04.718Z,5.03
2018-07-30T12:58:58.236Z,4.33
2018-07-30T13:03:52.682Z,4.08
2018-07-30T13:08:45.780Z,5.25
2018-07-30T13:13:38.891Z,4.53
2018-07-30T13:18:51.191Z,4.45
2018-07-30T13:23:44.310Z,4.37
2018-07-30T13:28:37.427Z,4.35
2018-07-30T13:33:30.569Z,4.40
2018-07-30T13:38:23.665Z,4.80
2018-07-30T13:43:16.686Z,4.60
2018-07-30T13:48:16.926Z,4.20
2018-07-30T13:53:10.116Z,4.30
2018-07-30T13:58:05.738Z,4.33
2018-07-30T14:03:00.913Z,4.33
2018-07-30T14:07:54.321Z,3.95
2018-07-30T14:12:47.736Z,4.10
2018-07-30T14:17:43.180Z,4.45
2018-07-30T14:22:36.456Z,3.85
2018-07-30T14:27:29.489Z,4.03
2018-07-30T14:32:22.766Z,4.10
2018-07-30T14:37:15.904Z,3.85
2018-07-30T14:42:10.238Z,4.47
2018-07-30T14:47:03.334Z,4.40
2018-07-30T14:51:56.469Z,4.20
2018-07-30T14:56:51.083Z,4.20
2018-07-30T15:01:44.131Z,4.12
2018-07-30T15:06:37.083Z,4.37
2018-07-30T15:11:30.100Z,3.77
2018-07-30T15:16:23.520Z,3.80
2018-07-30T15:21:16.477Z,4.25
2018-07-30T15:26:09.577Z,4.10
2018-07-30T15:31:02.720Z,4.17
2018-07-30T15:35:55.771Z,4.05
2018-07-30T15:40:48.931Z,3.70
2018-07-30T15:45:41.999Z,4.00
2018-07-30T15:50:35.005Z,4.15
2018-07-30T15:55:28.037Z,4.00
2018-07-30T16:00:21.105Z,4.10
2018-07-30T16:05:15.757Z,3.98
2018-07-30T16:10:08.796Z,4.40
2018-07-30T16:15:01.956Z,4.20
2018-07-30T16:19:55.028Z,4.20
2018-07-30T16:24:48.162Z,4.10
2018-07-30T16:29:41.122Z,4.10
2018-07-30T16:34:34.201Z,4.42
2018-07-30T16:39:27.316Z,4.15
2018-07-30T16:44:20.390Z,4.67
2018-07-30T16:49:13.424Z,4.20
2018-07-30T16:54:06.463Z,4.40
2018-07-30T16:58:59.544Z,4.55
2018-07-30T17:03:52.570Z,4.17
2018-07-30T17:08:45.608Z,4.00
2018-07-30T17:13:38.657Z,4.28
2018-07-30T17:18:31.607Z,4.65
2018-07-30T17:23:24.635Z,4.22
2018-07-30T17:28:17.706Z,4.33
2018-07-30T17:33:10.720Z,4.05
2018-07-30T17:38:03.877Z,4.42
2018-07-30T17:42:56.915Z,4.40
2018-07-30T17:47:49.912Z,3.95
2018-07-30T17:52:42.999Z,4.72
2018-07-30T17:57:36.037Z,4.37
2018-07-30T18:02:29.046Z,4.78
2018-07-30T18:07:22.041Z,4.20
2018-07-30T18:12:15.135Z,4.65
2018-07-30T18:17:08.168Z,4.03
2018-07-30T18:22:01.153Z,4.45
2018-07-30T18:26:54.172Z,4.53
2018-07-30T18:31:47.599Z,4.55
2018-07-30T18:36:40.597Z,4.50
2018-07-30T18:41:33.662Z,4.67
2018-07-30T18:46:26.700Z,4.80
2018-07-30T18:51:19.691Z,4.30
2018-07-30T18:56:12.720Z,4.90
2018-07-30T19:01:05.824Z,5.10
2018-07-30T19:05:58.836Z,5.62
2018-07-30T19:10:51.869Z,5.35
2018-07-30T19:15:44.949Z,5.62
2018-07-30T19:20:38.000Z,5.65
2018-07-30T19:25:31.048Z,6.50
2018-07-30T19:30:24.084Z,6.33
2018-07-30T19:35:17.176Z,5.58
2018-07-30T19:40:10.246Z,5.95
2018-07-30T19:45:03.787Z,6.12
2018-07-30T19:49:56.783Z,5.72
2018-07-30T19:54:50.142Z,6.00
2018-07-30T19:59:43.160Z,5.65
2018-07-30T20:04:36.236Z,5.33
2018-07-30T20:09:29.264Z,5.90
2018-07-30T20:14:22.272Z,5.40
2018-07-30T20:19:15.217Z,6.35
2018-07-30T20:24:08.260Z,6.20
2018-07-30T20:29:01.299Z,6.62
2018-07-30T20:33:56.281Z,6.28
2018-07-30T20:38:49.308Z,5.60
2018-07-30T20:43:42.297Z,6.10
2018-07-30T20:48:35.350Z,5.87
2018-07-30T20:53:28.376Z,6.75
2018-07-30T20:58:21.421Z,7.00
2018-07-30T21:03:14.461Z,7.25
2018-07-30T21:08:07.578Z,6.80
2018-07-30T21:13:00.644Z,6.15
2018-07-30T21:17:53.664Z,6.33
2018-07-30T21:22:46.684Z,6.67
2018-07-30T21:27:39.699Z,7.08
2018-07-30T21:32:32.716Z,6.35
2018-07-30T21:37:25.833Z,5.72
2018-07-30T21:42:18.892Z,5.80
2018-07-30T21:47:11.949Z,6.58
2018-07-30T21:52:05.128Z,6.50
2018-07-30T21:56:58.137Z,6.67
2018-07-30T22:01:51.260Z,6.60
2018-07-30T22:06:44.284Z,6.53
2018-07-30T22:11:37.411Z,5.72
2018-07-30T22:16:30.425Z,6.62
2018-07-30T22:21:23.447Z,6.47
2018-07-30T22:26:16.455Z,6.20
2018-07-30T22:31:09.487Z,6.30
2018-07-30T22:36:02.476Z,7.00
2018-07-30T22:40:55.477Z,7.17
2018-07-30T22:45:48.547Z,7.03
2018-07-30T22:50:41.662Z,6.80
2018-07-30T22:55:34.665Z,6.37
2018-07-30T23:00:27.697Z,6.62
2018-07-30T23:05:20.780Z,7.15
2018-07-30T23:10:13.764Z,6.78
2018-07-30T23:15:06.836Z,6.78
2018-07-30T23:19:59.904Z,6.75
2018-07-30T23:24:52.997Z,7.40
2018-07-30T23:29:45.996Z,6.65
2018-07-30T23:34:38.979Z,7.20
2018-07-30T23:39:31.974Z,6.53
2018-07-30T23:44:25.035Z,7.05
2018-07-30T23:49:18.028Z,7.22
2018-07-30T23:54:11.099Z,6.83
2018-07-30T23:59:04.262Z,6.17
